createdAt,value
2023-07-29T00:00:48.785Z,71.7
2023-07-29T00:03:49.106Z,71.8
2023-07-29T00:06:48.624Z,72.0
2023-07-29T00:09:48.734Z,72.2
2023-07-29T00:12:48.656Z,72.3
2023-07-29T00:15:48.565Z,72.6
2023-07-29T00:18:48.733Z,72.2
2023-07-29T00:21:48.632Z,72.6
2023-07-29T00:24:48.693Z,73.3
2023-07-29T00:27:48.618Z,73.2
2023-07-29T00:30:48.834Z,73.2
2023-07-29T00:33:48.710Z,74.0
2023-07-29T00:36:48.702Z,74.9
2023-07-29T00:39:48.649Z,75.0
2023-07-29T00:42:48.623Z,75.1
2023-07-29T00:45:48.637Z,74.9
2023-07-29T00:48:49.101Z,74.6
2023-07-29T00:51:48.620Z,74.2
2023-07-29T00:54:48.613Z,73.8
2023-07-29T00:57:48.577Z,73.5
2023-07-29T01:00:48.728Z,73.4
2023-07-29T01:03:49.050Z,73.2
2023-07-29T01:06:48.642Z,72.8
2023-07-29T01:09:48.597Z,72.6
2023-07-29T01:12:48.657Z,72.3
2023-07-29T01:15:50.693Z,72.3
2023-07-29T01:18:48.733Z,72.8
2023-07-29T01:21:48.728Z,72.9
2023-07-29T01:24:48.670Z,72.6
2023-07-29T01:27:48.604Z,72.4
2023-07-29T01:30:50.716Z,72.2
2023-07-29T01:33:48.666Z,72.2
2023-07-29T01:36:48.582Z,72.1
2023-07-29T01:39:48.582Z,72.1
2023-07-29T01:42:48.638Z,72.1
2023-07-29T01:45:48.698Z,72.0
2023-07-29T01:48:48.667Z,71.9
2023-07-29T01:51:48.700Z,72.1
2023-07-29T01:54:48.662Z,72.1
2023-07-29T01:57:48.570Z,72.0
2023-07-29T02:00:48.722Z,71.9
2023-07-29T02:03:48.653Z,71.8
2023-07-29T02:06:48.656Z,71.7
2023-07-29T02:09:48.597Z,70.7
2023-07-29T02:12:48.661Z,69.0
2023-07-29T02:15:48.613Z,68.2
2023-07-29T02:18:48.698Z,68.3
2023-07-29T02:21:48.552Z,68.7
2023-07-29T02:24:48.576Z,68.6
2023-07-29T02:27:48.843Z,68.5
2023-07-29T02:30:48.740Z,68.5
2023-07-29T02:33:48.924Z,68.8
2023-07-29T02:36:48.647Z,69.4
2023-07-29T02:39:48.601Z,70.1
2023-07-29T02:42:48.603Z,70.5
2023-07-29T02:45:48.650Z,71.1
2023-07-29T02:48:48.806Z,71.4
2023-07-29T02:51:48.683Z,71.4
2023-07-29T02:54:48.654Z,70.9
2023-07-29T02:57:48.584Z,69.6
2023-07-29T03:00:48.890Z,69.6
2023-07-29T03:03:49.020Z,70.3
2023-07-29T03:06:48.562Z,70.8
2023-07-29T03:09:48.651Z,71.2
2023-07-29T03:12:48.599Z,71.5
2023-07-29T03:15:48.672Z,71.9
2023-07-29T03:18:48.676Z,71.9
2023-07-29T03:21:48.555Z,71.8
2023-07-29T03:24:48.644Z,71.7
2023-07-29T03:27:48.555Z,71.5
2023-07-29T03:30:48.738Z,71.4
2023-07-29T03:33:48.704Z,71.3
2023-07-29T03:36:48.675Z,71.1
2023-07-29T03:39:48.659Z,71.0
2023-07-29T03:42:48.609Z,70.9
2023-07-29T03:45:48.725Z,70.7
2023-07-29T03:48:48.766Z,70.6
2023-07-29T03:51:48.620Z,70.4
2023-07-29T03:54:48.609Z,70.3
2023-07-29T03:57:48.534Z,70.2
2023-07-29T04:00:48.713Z,70.2
2023-07-29T04:03:48.724Z,70.2
2023-07-29T04:06:48.614Z,69.9
2023-07-29T04:09:48.623Z,69.7
2023-07-29T04:12:48.673Z,69.9
2023-07-29T04:15:48.623Z,70.1
2023-07-29T04:18:48.831Z,70.1
2023-07-29T04:21:48.657Z,70.6
2023-07-29T04:24:48.566Z,70.1
2023-07-29T04:27:48.637Z,70.4
2023-07-29T04:30:48.609Z,69.9
2023-07-29T04:33:51.466Z,69.5
2023-07-29T04:36:48.662Z,69.3
2023-07-29T04:39:48.722Z,69.0
2023-07-29T04:42:48.643Z,68.8
2023-07-29T04:45:48.641Z,68.7
2023-07-29T04:48:48.641Z,68.5
2023-07-29T04:51:48.673Z,68.4
2023-07-29T04:54:48.765Z,68.0
2023-07-29T04:57:48.673Z,68.3
2023-07-29T05:00:48.854Z,68.6
2023-07-29T05:03:48.599Z,69.5
2023-07-29T05:06:48.694Z,69.1
2023-07-29T05:09:48.634Z,68.7
2023-07-29T05:12:48.677Z,67.8
2023-07-29T05:15:48.669Z,66.8
2023-07-29T05:18:48.659Z,67.0
2023-07-29T05:21:48.679Z,68.0
2023-07-29T05:24:48.634Z,68.6
2023-07-29T05:27:48.647Z,68.8
2023-07-29T05:30:48.666Z,69.1
2023-07-29T05:33:49.040Z,69.4
2023-07-29T05:36:48.666Z,69.8
2023-07-29T05:39:48.727Z,69.8
2023-07-29T05:42:48.616Z,69.6
2023-07-29T05:45:48.677Z,70.0
2023-07-29T05:48:48.624Z,70.0
2023-07-29T05:51:48.619Z,70.3
2023-07-29T05:54:48.637Z,70.8
2023-07-29T05:57:48.703Z,71.0
2023-07-29T06:00:48.924Z,71.5
2023-07-29T06:03:48.928Z,71.8
2023-07-29T06:06:48.612Z,72.1
2023-07-29T06:09:48.570Z,72.1
2023-07-29T06:12:48.647Z,71.9
2023-07-29T06:15:48.850Z,72.1
2023-07-29T06:18:48.708Z,71.6
2023-07-29T06:21:48.571Z,71.5
2023-07-29T06:24:48.603Z,71.4
2023-07-29T06:27:48.604Z,70.9
2023-07-29T06:30:48.825Z,70.9
2023-07-29T06:33:48.649Z,70.4
2023-07-29T06:36:48.665Z,70.2
2023-07-29T06:39:48.582Z,70.1
2023-07-29T06:42:48.599Z,70.2
2023-07-29T06:45:48.611Z,70.5
2023-07-29T06:48:48.788Z,70.3
2023-07-29T06:51:48.660Z,70.2
2023-07-29T06:54:48.641Z,70.1
2023-07-29T06:57:48.603Z,69.9
2023-07-29T07:00:48.903Z,69.7
2023-07-29T07:03:48.913Z,69.8
2023-07-29T07:06:48.644Z,70.2
2023-07-29T07:09:48.662Z,70.1
2023-07-29T07:12:48.627Z,70.1
2023-07-29T07:15:48.645Z,70.2
2023-07-29T07:18:48.648Z,70.3
2023-07-29T07:21:48.616Z,70.3
2023-07-29T07:24:48.634Z,70.4
2023-07-29T07:27:48.628Z,70.1
2023-07-29T07:30:48.871Z,69.8
2023-07-29T07:33:48.644Z,69.4
2023-07-29T07:36:48.801Z,68.7
2023-07-29T07:39:48.597Z,68.9
2023-07-29T07:42:48.611Z,69.1
2023-07-29T07:45:48.638Z,70.0
2023-07-29T07:48:48.660Z,70.1
2023-07-29T07:51:48.662Z,70.0
2023-07-29T07:54:48.644Z,69.6
2023-07-29T07:57:48.686Z,68.8
2023-07-29T08:00:48.657Z,68.0
2023-07-29T08:03:48.805Z,66.9
2023-07-29T08:06:48.634Z,65.7
2023-07-29T08:09:48.676Z,65.1
2023-07-29T08:12:51.294Z,65.1
2023-07-29T08:15:48.678Z,65.3
2023-07-29T08:18:48.643Z,65.3
2023-07-29T08:21:48.627Z,65.3
2023-07-29T08:24:48.589Z,66.3
2023-07-29T08:27:48.608Z,66.6
2023-07-29T08:30:48.646Z,67.1
2023-07-29T08:33:48.646Z,67.8
2023-07-29T08:36:48.583Z,70.3
2023-07-29T08:39:48.708Z,69.5
2023-07-29T08:42:48.810Z,68.8
2023-07-29T08:45:48.627Z,68.4
2023-07-29T08:48:48.641Z,69.5
2023-07-29T08:51:48.654Z,67.9
2023-07-29T08:54:48.689Z,68.2
2023-07-29T08:57:48.623Z,68.7
2023-07-29T09:00:51.496Z,66.2
2023-07-29T09:03:48.928Z,65.9
2023-07-29T09:06:48.647Z,66.3
2023-07-29T09:09:48.597Z,66.6
2023-07-29T09:12:48.645Z,66.2
2023-07-29T09:15:48.661Z,65.8
2023-07-29T09:18:51.457Z,66.2
2023-07-29T09:21:48.619Z,66.8
2023-07-29T09:24:48.642Z,67.3
2023-07-29T09:27:48.561Z,67.0
2023-07-29T09:30:48.876Z,66.6
2023-07-29T09:33:48.752Z,66.3
2023-07-29T09:36:48.774Z,65.3
2023-07-29T09:39:48.599Z,65.8
2023-07-29T09:42:48.566Z,65.0
2023-07-29T09:45:48.572Z,64.6
2023-07-29T09:48:48.642Z,64.5
2023-07-29T09:51:48.618Z,63.5
2023-07-29T09:54:48.719Z,62.0
2023-07-29T09:57:48.649Z,61.9
2023-07-29T10:00:48.900Z,61.9
2023-07-29T10:03:49.044Z,62.4
2023-07-29T10:06:48.610Z,63.5
2023-07-29T10:09:48.625Z,64.0
2023-07-29T10:12:50.554Z,63.8
2023-07-29T10:15:48.618Z,64.1
2023-07-29T10:18:48.641Z,64.4
2023-07-29T10:21:48.616Z,63.7
2023-07-29T10:24:48.593Z,63.2
2023-07-29T10:27:48.649Z,63.2
2023-07-29T10:30:48.632Z,63.2
2023-07-29T10:33:49.045Z,62.6
2023-07-29T10:36:48.618Z,62.3
2023-07-29T10:39:48.623Z,62.8
2023-07-29T10:42:48.604Z,62.6
2023-07-29T10:45:52.082Z,62.0
2023-07-29T10:48:48.723Z,62.3
2023-07-29T10:51:50.747Z,62.5
2023-07-29T10:54:48.707Z,62.9
2023-07-29T10:57:48.645Z,62.5
2023-07-29T11:00:48.700Z,63.1
2023-07-29T11:03:48.643Z,63.6
2023-07-29T11:06:48.765Z,63.7
2023-07-29T11:09:48.561Z,63.8
2023-07-29T11:12:49.088Z,64.2
2023-07-29T11:15:48.712Z,65.2
2023-07-29T11:18:48.715Z,64.7
2023-07-29T11:21:48.582Z,64.6
2023-07-29T11:24:48.701Z,64.9
2023-07-29T11:27:48.690Z,64.4
2023-07-29T11:30:48.691Z,64.9
2023-07-29T11:33:48.887Z,66.3
2023-07-29T11:36:48.660Z,66.9
2023-07-29T11:39:48.612Z,66.9
2023-07-29T11:42:48.677Z,67.1
2023-07-29T11:46:01.025Z,66.7
2023-07-29T11:48:48.758Z,66.8
2023-07-29T11:51:48.579Z,66.5
2023-07-29T11:54:48.624Z,66.4
2023-07-29T11:57:48.582Z,66.2
2023-07-29T12:00:49.064Z,66.5
2023-07-29T12:03:48.808Z,66.9
2023-07-29T12:06:48.680Z,67.0
2023-07-29T12:09:48.582Z,67.4
2023-07-29T12:12:48.577Z,67.5
2023-07-29T12:15:48.576Z,67.3
2023-07-29T12:18:49.153Z,67.8
2023-07-29T12:21:48.583Z,68.7
2023-07-29T12:24:49.301Z,69.4
2023-07-29T12:27:48.614Z,69.3
2023-07-29T12:30:48.825Z,70.2
2023-07-29T12:33:49.222Z,70.0
2023-07-29T12:36:48.665Z,70.1
2023-07-29T12:39:48.634Z,69.3
2023-07-29T12:42:48.632Z,68.9
2023-07-29T12:45:48.574Z,70.1
2023-07-29T12:48:48.643Z,70.4
2023-07-29T12:51:48.600Z,70.7
2023-07-29T12:54:48.571Z,71.6
2023-07-29T12:57:48.553Z,72.4
2023-07-29T13:00:48.881Z,71.5
2023-07-29T13:03:49.495Z,71.3
2023-07-29T13:06:49.479Z,70.8
2023-07-29T13:09:48.618Z,69.9
2023-07-29T13:12:48.717Z,70.5
2023-07-29T13:15:48.612Z,70.5
2023-07-29T13:18:48.656Z,70.2
2023-07-29T13:21:48.585Z,69.8
2023-07-29T13:24:48.644Z,69.7
2023-07-29T13:27:49.085Z,69.3
2023-07-29T13:30:48.736Z,69.8
2023-07-29T13:33:48.590Z,70.6
2023-07-29T13:36:51.701Z,71.1
2023-07-29T13:39:49.719Z,71.4
2023-07-29T13:42:48.650Z,72.1
2023-07-29T13:45:48.644Z,72.5
2023-07-29T13:48:48.661Z,72.4
2023-07-29T13:51:48.653Z,72.2
2023-07-29T13:54:48.683Z,71.5
2023-07-29T13:57:48.616Z,72.0
2023-07-29T14:00:48.826Z,71.5
2023-07-29T14:03:48.645Z,71.1
2023-07-29T14:06:59.927Z,71.2
2023-07-29T14:09:48.696Z,69.6
2023-07-29T14:12:48.652Z,68.9
2023-07-29T14:15:48.567Z,69.0
2023-07-29T14:18:48.741Z,68.8
2023-07-29T14:21:48.623Z,69.5
2023-07-29T14:24:48.714Z,70.1
2023-07-29T14:27:48.560Z,70.9
2023-07-29T14:30:48.665Z,69.8
2023-07-29T14:33:48.749Z,70.1
2023-07-29T14:36:48.650Z,68.9
2023-07-29T14:39:48.576Z,69.2
2023-07-29T14:42:51.549Z,68.6
2023-07-29T14:45:48.809Z,68.4
2023-07-29T14:48:48.698Z,67.9
2023-07-29T14:51:48.633Z,68.1
2023-07-29T14:54:48.645Z,65.4
2023-07-29T14:57:48.590Z,65.9
2023-07-29T15:00:48.851Z,65.9
2023-07-29T15:03:49.026Z,65.1
2023-07-29T15:06:48.729Z,65.1
2023-07-29T15:09:48.589Z,65.5
2023-07-29T15:12:48.627Z,64.1
2023-07-29T15:15:48.651Z,64.2
2023-07-29T15:18:48.834Z,64.0
2023-07-29T15:21:48.614Z,63.8
2023-07-29T15:24:48.613Z,62.3
2023-07-29T15:27:48.635Z,61.4
2023-07-29T15:30:48.941Z,61.3
2023-07-29T15:33:48.723Z,61.4
2023-07-29T15:36:48.633Z,61.3
2023-07-29T15:39:48.598Z,61.9
2023-07-29T15:42:48.693Z,62.6
2023-07-29T15:45:48.785Z,62.0
2023-07-29T15:48:48.701Z,61.7
2023-07-29T15:51:48.592Z,61.6
2023-07-29T15:54:48.698Z,61.9
2023-07-29T15:57:48.564Z,61.2
2023-07-29T16:00:48.832Z,61.3
2023-07-29T16:03:48.965Z,61.4
2023-07-29T16:06:48.652Z,61.4
2023-07-29T16:09:48.602Z,61.5
2023-07-29T16:12:48.708Z,60.8
2023-07-29T16:15:49.001Z,61.0
2023-07-29T16:18:48.852Z,61.3
2023-07-29T16:21:48.696Z,61.5
2023-07-29T16:24:48.892Z,61.8
2023-07-29T16:27:48.888Z,61.4
2023-07-29T16:30:48.801Z,61.8
2023-07-29T16:33:48.719Z,61.4
2023-07-29T16:36:48.793Z,61.3
2023-07-29T16:39:48.615Z,61.9
2023-07-29T16:45:48.705Z,61.8
2023-07-29T16:48:50.512Z,62.2
2023-07-29T16:51:48.625Z,62.1
2023-07-29T16:54:48.633Z,61.2
2023-07-29T16:57:48.609Z,60.5
2023-07-29T17:00:48.748Z,61.3
2023-07-29T17:03:49.027Z,61.9
2023-07-29T17:06:48.708Z,62.2
2023-07-29T17:09:48.587Z,62.3
2023-07-29T17:12:48.715Z,62.6
2023-07-29T17:15:48.814Z,62.6
2023-07-29T17:18:48.724Z,62.4
2023-07-29T17:21:48.664Z,62.9
2023-07-29T17:24:48.645Z,62.8
2023-07-29T17:27:48.601Z,63.1
2023-07-29T17:30:48.763Z,63.1
2023-07-29T17:33:50.621Z,62.4
2023-07-29T17:36:48.572Z,62.4
2023-07-29T17:39:48.650Z,62.7
2023-07-29T17:42:48.768Z,62.8
2023-07-29T17:45:48.783Z,63.8
2023-07-29T17:48:48.966Z,64.3
2023-07-29T17:51:48.722Z,64.6
2023-07-29T17:54:48.664Z,64.9
2023-07-29T17:57:48.622Z,65.0
2023-07-29T18:00:48.748Z,64.7
2023-07-29T18:03:48.940Z,64.3
2023-07-29T18:06:48.753Z,64.2
2023-07-29T18:09:48.698Z,63.8
2023-07-29T18:12:48.603Z,63.8
2023-07-29T18:15:48.795Z,63.8
2023-07-29T18:18:48.856Z,63.4
2023-07-29T18:21:48.845Z,63.8
2023-07-29T18:24:48.885Z,64.8
2023-07-29T18:27:48.710Z,64.9
2023-07-29T18:30:49.069Z,65.1
2023-07-29T18:33:48.895Z,65.1
2023-07-29T18:36:48.991Z,65.7
2023-07-29T18:39:48.734Z,66.4
2023-07-29T18:42:49.008Z,66.4
2023-07-29T18:45:48.756Z,66.5
2023-07-29T18:48:48.802Z,66.7
2023-07-29T18:51:48.900Z,66.5
2023-07-29T18:54:48.744Z,65.3
2023-07-29T18:57:48.929Z,64.3
2023-07-29T19:00:48.808Z,61.4
2023-07-29T19:03:49.011Z,59.9
2023-07-29T19:06:48.824Z,58.8
2023-07-29T19:09:48.658Z,57.9
2023-07-29T19:12:48.731Z,56.9
2023-07-29T19:15:48.647Z,55.7
2023-07-29T19:18:48.867Z,55.7
2023-07-29T19:21:48.717Z,56.0
2023-07-29T19:24:48.621Z,56.2
2023-07-29T19:27:48.677Z,56.4
2023-07-29T19:30:48.925Z,56.3
2023-07-29T19:33:48.688Z,56.3
2023-07-29T19:36:48.686Z,56.5
2023-07-29T19:39:48.635Z,56.2
2023-07-29T19:42:48.601Z,55.4
2023-07-29T19:46:02.486Z,54.8
2023-07-29T19:48:48.652Z,54.1
2023-07-29T19:51:48.701Z,53.8
2023-07-29T19:54:48.673Z,53.7
2023-07-29T19:57:48.633Z,53.2
2023-07-29T20:00:48.845Z,53.1
2023-07-29T20:03:48.739Z,52.9
2023-07-29T20:06:48.632Z,53.1
2023-07-29T20:09:48.626Z,53.3
2023-07-29T20:12:48.705Z,53.2
2023-07-29T20:15:48.844Z,53.0
2023-07-29T20:18:48.795Z,53.9
2023-07-29T20:21:48.736Z,54.9
2023-07-29T20:24:48.635Z,55.8
2023-07-29T20:27:48.603Z,56.4
2023-07-29T20:30:51.849Z,56.7
2023-07-29T20:33:48.702Z,56.5
2023-07-29T20:36:48.713Z,56.5
2023-07-29T20:39:48.739Z,56.9
2023-07-29T20:42:48.692Z,57.0
2023-07-29T20:45:48.642Z,57.1
2023-07-29T20:48:48.708Z,56.7
2023-07-29T20:51:48.632Z,56.0
2023-07-29T20:54:48.673Z,55.4
2023-07-29T20:57:48.694Z,54.6
2023-07-29T21:00:48.858Z,54.3
2023-07-29T21:03:48.879Z,54.3
2023-07-29T21:06:48.622Z,54.4
2023-07-29T21:09:48.576Z,54.5
2023-07-29T21:12:48.653Z,55.3
2023-07-29T21:15:50.257Z,55.5
2023-07-29T21:18:48.888Z,55.2
2023-07-29T21:21:48.589Z,55.5
2023-07-29T21:24:48.552Z,55.8
2023-07-29T21:27:48.656Z,55.9
2023-07-29T21:30:48.822Z,55.8
2023-07-29T21:33:48.792Z,55.4
2023-07-29T21:36:48.610Z,54.9
2023-07-29T21:39:48.517Z,55.1
2023-07-29T21:42:48.595Z,56.0
2023-07-29T21:45:48.615Z,56.7
2023-07-29T21:48:48.785Z,57.0
2023-07-29T21:51:48.738Z,57.5
2023-07-29T21:54:48.597Z,58.0
2023-07-29T21:57:48.582Z,58.4
2023-07-29T22:00:48.824Z,58.4
2023-07-29T22:03:48.608Z,58.5
2023-07-29T22:06:48.558Z,58.5
2023-07-29T22:09:48.545Z,58.6
2023-07-29T22:12:48.685Z,59.0
2023-07-29T22:15:48.586Z,59.3
2023-07-29T22:18:48.709Z,59.3
2023-07-29T22:21:48.782Z,58.9
2023-07-29T22:24:49.414Z,58.4
2023-07-29T22:27:48.581Z,58.6
2023-07-29T22:30:48.701Z,59.0
2023-07-29T22:33:49.175Z,59.6
2023-07-29T22:36:48.597Z,59.8
2023-07-29T22:39:48.631Z,60.1
2023-07-29T22:42:48.645Z,62.8
2023-07-29T22:45:48.672Z,62.8
2023-07-29T22:48:51.496Z,63.2
2023-07-29T22:51:48.698Z,62.5
2023-07-29T22:54:49.179Z,62.8
2023-07-29T22:57:48.648Z,63.7
2023-07-29T23:00:48.980Z,63.4
2023-07-29T23:03:49.083Z,63.3
2023-07-29T23:06:49.105Z,63.3
2023-07-29T23:09:48.744Z,63.6
2023-07-29T23:12:49.376Z,63.7
2023-07-29T23:15:48.974Z,63.8
2023-07-29T23:18:49.170Z,63.8
2023-07-29T23:21:48.711Z,63.7
2023-07-29T23:24:48.751Z,63.7
2023-07-29T23:27:48.621Z,63.9
2023-07-29T23:30:48.954Z,64.0
2023-07-29T23:33:48.608Z,63.9
2023-07-29T23:36:48.684Z,64.0
2023-07-29T23:39:48.793Z,64.0
2023-07-29T23:42:48.738Z,64.0
2023-07-29T23:45:48.864Z,63.8
2023-07-29T23:48:49.484Z,63.9
2023-07-29T23:51:48.740Z,63.2
2023-07-29T23:54:48.671Z,62.5
2023-07-29T23:57:48.748Z,63.2
